Time,TemperatureF,DewpointF,PressureIn,WindDirection,WindDirectionDegrees,WindSpeedMPH,WindSpeedGustMPH,Humidity,HourlyPrecipIn,Conditions,Clouds,dailyrainin,SoftwareType,DateUTC
2013-06-22 00:03:00,79.7,73.4,30.02,South,181,0.0,2.0,81,0.00,,---,0.00,VWS V13.01,2013-06-22 05:03:00,
2013-06-22 00:08:00,79.6,73.3,30.02,South,181,0.0,0.0,81,0.00,,---,0.00,VWS V13.01,2013-06-22 05:08:00,
2013-06-22 00:13:00,79.4,73.1,30.02,South,181,0.0,1.0,81,0.00,,---,0.00,VWS V13.01,2013-06-22 05:13:00,
2013-06-22 00:18:00,79.3,73.3,30.02,South,181,0.0,1.0,82,0.00,,---,0.00,VWS V13.01,2013-06-22 05:18:00,
2013-06-22 00:23:00,79.2,73.2,30.02,South,181,0.0,1.0,82,0.00,,---,0.00,VWS V13.01,2013-06-22 05:23:00,
2013-06-22 00:28:00,79.2,73.2,30.02,South,181,0.0,1.0,82,0.00,,---,0.00,VWS V13.01,2013-06-22 05:28:00,
2013-06-22 00:33:00,79.2,73.2,30.02,South,181,0.0,3.0,82,0.00,,---,0.00,VWS V13.01,2013-06-22 05:33:00,
2013-06-22 00:38:00,79.2,73.2,30.02,South,180,0.0,0.0,82,0.00,,---,0.00,VWS V13.01,2013-06-22 05:38:00,
2013-06-22 00:43:00,79.2,73.2,30.02,South,180,1.0,1.0,82,0.00,,---,0.00,VWS V13.01,2013-06-22 05:43:00,
2013-06-22 00:48:00,79.1,73.1,30.02,South,181,0.0,3.0,82,0.00,,---,0.00,VWS V13.01,2013-06-22 05:48:00,
2013-06-22 00:53:00,79.0,73.0,30.02,South,181,0.0,3.0,82,0.00,,---,0.00,VWS V13.01,2013-06-22 05:53:00,
2013-06-22 00:58:00,78.8,72.8,30.02,South,181,0.0,3.0,82,0.00,,---,0.00,VWS V13.01,2013-06-22 05:58:00,
2013-06-22 01:03:00,78.7,73.1,30.01,South,180,0.0,3.0,83,0.00,,---,0.00,VWS V13.01,2013-06-22 06:03:00,
2013-06-22 01:08:00,78.7,73.1,30.01,South,180,0.0,0.0,83,0.00,,---,0.00,VWS V13.01,2013-06-22 06:08:00,
2013-06-22 01:13:00,78.6,73.0,30.01,South,180,0.0,0.0,83,0.00,,---,0.00,VWS V13.01,2013-06-22 06:13:00,
2013-06-22 01:18:00,78.5,73.3,30.01,South,180,0.0,0.0,84,0.00,,---,0.00,VWS V13.01,2013-06-22 06:18:00,
2013-06-22 01:23:00,78.3,73.1,30.01,South,181,0.0,0.0,84,0.00,,---,0.00,VWS V13.01,2013-06-22 06:23:00,
2013-06-22 01:29:00,78.2,73.0,30.01,South,181,0.0,3.0,84,0.00,,---,0.00,VWS V13.01,2013-06-22 06:29:00,
2013-06-22 01:34:00,78.2,73.0,30.01,South,181,0.0,3.0,84,0.00,,---,0.00,VWS V13.01,2013-06-22 06:34:00,
2013-06-22 01:39:00,78.2,73.0,30.01,South,181,0.0,4.0,84,0.00,,---,0.00,VWS V13.01,2013-06-22 06:39:00,
2013-06-22 01:44:00,78.1,72.9,30.01,South,180,0.0,4.0,84,0.00,,---,0.00,VWS V13.01,2013-06-22 06:44:00,
2013-06-22 01:49:00,78.1,72.9,30.01,South,181,0.0,4.0,84,0.00,,---,0.00,VWS V13.01,2013-06-22 06:49:00,
2013-06-22 01:54:00,78.0,72.8,30.01,South,181,0.0,4.0,84,0.00,,---,0.00,VWS V13.01,2013-06-22 06:54:00,
2013-06-22 01:59:00,77.9,73.0,30.01,South,181,3.0,5.0,85,0.00,,---,0.00,VWS V13.01,2013-06-22 06:59:00,
2013-06-22 02:04:00,77.8,72.9,30.01,South,180,0.0,5.0,85,0.00,,---,0.00,VWS V13.01,2013-06-22 07:04:00,
2013-06-22 02:09:00,77.7,72.8,30.01,South,181,0.0,4.0,85,0.00,,---,0.00,VWS V13.01,2013-06-22 07:09:00,
2013-06-22 02:14:00,77.6,72.7,30.01,South,180,0.0,4.0,85,0.00,,---,0.00,VWS V13.01,2013-06-22 07:14:00,
2013-06-22 02:19:00,77.5,72.6,30.01,South,181,0.0,4.0,85,0.00,,---,0.00,VWS V13.01,2013-06-22 07:19:00,
2013-06-22 02:24:00,77.4,72.5,30.02,South,180,0.0,4.0,85,0.00,,---,0.00,VWS V13.01,2013-06-22 07:24:00,
2013-06-22 02:30:00,77.4,72.5,30.02,South,179,0.0,4.0,85,0.00,,---,0.00,VWS V13.01,2013-06-22 07:30:00,
2013-06-22 02:35:00,77.3,72.4,30.02,South,180,0.0,4.0,85,0.00,,---,0.00,VWS V13.01,2013-06-22 07:35:00,
2013-06-22 02:40:00,77.3,72.4,30.02,SE,135,0.0,0.0,85,0.00,,---,0.00,VWS V13.01,2013-06-22 07:40:00,
2013-06-22 02:45:00,77.1,72.2,30.02,SE,135,0.0,0.0,85,0.00,,---,0.00,VWS V13.01,2013-06-22 07:45:00,
2013-06-22 02:50:00,77.0,72.2,30.02,SE,135,0.0,0.0,85,0.00,,---,0.00,VWS V13.01,2013-06-22 07:50:00,
2013-06-22 02:55:00,76.9,72.4,30.02,SE,135,0.0,0.0,86,0.00,,---,0.00,VWS V13.01,2013-06-22 07:55:00,
2013-06-22 03:00:00,76.8,72.3,30.02,SE,134,0.0,0.0,86,0.00,,---,0.00,VWS V13.01,2013-06-22 08:00:00,
2013-06-22 03:05:00,76.8,72.3,30.02,SE,134,0.0,0.0,86,0.00,,---,0.00,VWS V13.01,2013-06-22 08:05:00,
2013-06-22 03:10:00,76.8,72.3,30.02,SE,134,0.0,0.0,86,0.00,,---,0.00,VWS V13.01,2013-06-22 08:10:00,
2013-06-22 03:15:00,76.9,72.4,30.02,SE,135,0.0,0.0,86,0.00,,---,0.00,VWS V13.01,2013-06-22 08:15:00,
2013-06-22 03:20:00,76.9,72.4,30.02,SE,135,0.0,0.0,86,0.00,,---,0.00,VWS V13.01,2013-06-22 08:20:00,
2013-06-22 03:25:00,76.7,72.2,30.02,SE,135,0.0,0.0,86,0.00,,---,0.00,VWS V13.01,2013-06-22 08:25:00,
2013-06-22 03:30:00,76.6,72.1,30.01,SE,134,0.0,0.0,86,0.00,,---,0.00,VWS V13.01,2013-06-22 08:30:00,
2013-06-22 03:35:00,76.5,72.0,30.01,SE,135,0.0,0.0,86,0.00,,---,0.00,VWS V13.01,2013-06-22 08:35:00,
2013-06-22 03:40:00,76.4,71.9,30.01,SE,135,0.0,0.0,86,0.00,,---,0.00,VWS V13.01,2013-06-22 08:40:00,
2013-06-22 03:45:00,76.4,72.2,30.00,SE,135,1.0,1.0,87,0.00,,---,0.00,VWS V13.01,2013-06-22 08:45:00,
2013-06-22 03:50:00,76.3,72.2,30.00,SSW,205,0.0,2.0,87,0.00,,---,0.00,VWS V13.01,2013-06-22 08:50:00,
2013-06-22 03:55:00,76.2,72.1,30.00,South,191,0.0,4.0,87,0.00,,---,0.00,VWS V13.01,2013-06-22 08:55:00,
2013-06-22 04:00:00,76.2,72.1,30.00,South,191,0.0,4.0,87,0.00,,---,0.00,VWS V13.01,2013-06-22 09:00:00,
2013-06-22 04:05:00,76.2,72.1,30.00,South,191,0.0,4.0,87,0.00,,---,0.00,VWS V13.01,2013-06-22 09:05:00,
2013-06-22 04:11:00,76.1,71.9,30.00,SSW,200,0.0,1.0,87,0.00,,---,0.00,VWS V13.01,2013-06-22 09:11:00,
2013-06-22 04:16:00,76.1,71.9,30.00,SSW,200,0.0,1.0,87,0.00,,---,0.00,VWS V13.01,2013-06-22 09:16:00,
2013-06-22 04:21:00,76.0,71.9,30.00,SSW,194,0.0,2.0,87,0.00,,---,0.00,VWS V13.01,2013-06-22 09:21:00,
2013-06-22 04:26:00,76.0,71.9,30.00,SSW,194,0.0,2.0,87,0.00,,---,0.00,VWS V13.01,2013-06-22 09:26:00,
2013-06-22 04:31:00,75.9,71.8,30.00,SSW,194,0.0,2.0,87,0.00,,---,0.00,VWS V13.01,2013-06-22 09:31:00,
2013-06-22 04:36:00,75.9,71.8,29.99,SSW,194,0.0,2.0,87,0.00,,---,0.00,VWS V13.01,2013-06-22 09:36:00,
2013-06-22 04:41:00,75.9,71.8,29.99,SSW,194,0.0,3.0,87,0.00,,---,0.00,VWS V13.01,2013-06-22 09:41:00,
2013-06-22 04:46:00,75.9,71.8,29.99,SSW,192,0.0,3.0,87,0.00,,---,0.00,VWS V13.01,2013-06-22 09:46:00,
2013-06-22 04:51:00,75.8,71.7,29.99,SSW,192,0.0,3.0,87,0.00,,---,0.00,VWS V13.01,2013-06-22 09:51:00,
2013-06-22 04:56:00,75.7,71.6,29.99,SSW,192,0.0,3.0,87,0.00,,---,0.00,VWS V13.01,2013-06-22 09:56:00,
2013-06-22 05:01:00,75.6,71.5,29.99,SSW,192,0.0,3.0,87,0.00,,---,0.00,VWS V13.01,2013-06-22 10:01:00,
2013-06-22 05:06:00,75.5,71.7,29.98,SSW,192,0.0,3.0,88,0.00,,---,0.00,VWS V13.01,2013-06-22 10:06:00,
2013-06-22 05:11:00,75.5,71.7,29.99,South,191,0.0,2.0,88,0.00,,---,0.00,VWS V13.01,2013-06-22 10:11:00,
2013-06-22 05:16:00,75.4,71.6,29.99,South,191,0.0,2.0,88,0.00,,---,0.00,VWS V13.01,2013-06-22 10:16:00,
2013-06-22 05:21:00,75.4,71.6,29.99,South,191,0.0,2.0,88,0.00,,---,0.00,VWS V13.01,2013-06-22 10:21:00,
2013-06-22 05:27:00,75.3,71.5,29.99,SSW,192,0.0,2.0,88,0.00,,---,0.00,VWS V13.01,2013-06-22 10:27:00,
2013-06-22 05:32:00,75.3,71.5,29.99,SSW,192,0.0,4.0,88,0.00,,---,0.00,VWS V13.01,2013-06-22 10:32:00,
2013-06-22 05:37:00,75.1,71.3,29.99,SSW,192,0.0,0.0,88,0.00,,---,0.00,VWS V13.01,2013-06-22 10:37:00,
2013-06-22 05:42:00,75.0,71.5,30.00,SSW,192,0.0,0.0,89,0.00,,---,0.00,VWS V13.01,2013-06-22 10:42:00,
2013-06-22 05:47:00,74.9,71.4,30.00,SSW,192,0.0,0.0,89,0.00,,---,0.00,VWS V13.01,2013-06-22 10:47:00,
2013-06-22 05:52:00,74.7,71.2,30.00,SSW,192,0.0,0.0,89,0.00,,---,0.00,VWS V13.01,2013-06-22 10:52:00,
2013-06-22 05:57:00,74.5,71.1,30.00,SSW,192,0.0,0.0,89,0.00,,---,0.00,VWS V13.01,2013-06-22 10:57:00,
2013-06-22 06:02:00,74.4,71.3,30.00,South,191,0.0,0.0,90,0.00,,---,0.00,VWS V13.01,2013-06-22 11:02:00,
2013-06-22 06:07:00,74.5,71.4,30.01,ENE,67,5.0,7.0,90,0.00,,---,0.00,VWS V13.01,2013-06-22 11:07:00,
2013-06-22 06:12:00,74.7,71.6,30.01,East,82,0.0,7.0,90,0.00,,---,0.00,VWS V13.01,2013-06-22 11:12:00,
2013-06-22 06:17:00,74.8,71.7,30.01,East,82,0.0,7.0,90,0.00,,---,0.00,VWS V13.01,2013-06-22 11:17:00,
2013-06-22 06:22:00,74.7,71.6,30.01,East,82,0.0,7.0,90,0.00,,---,0.00,VWS V13.01,2013-06-22 11:22:00,
2013-06-22 06:27:00,74.8,72.0,30.02,East,82,0.0,7.0,91,0.00,,---,0.00,VWS V13.01,2013-06-22 11:27:00,
2013-06-22 06:32:00,74.8,72.0,30.02,East,82,0.0,7.0,91,0.00,,---,0.00,VWS V13.01,2013-06-22 11:32:00,
2013-06-22 06:37:00,74.9,72.1,30.02,East,82,0.0,0.0,91,0.00,,---,0.00,VWS V13.01,2013-06-22 11:37:00,
2013-06-22 06:42:00,74.9,72.1,30.02,East,82,0.0,0.0,91,0.00,,---,0.00,VWS V13.01,2013-06-22 11:42:00,
2013-06-22 06:47:00,75.0,72.2,30.02,East,82,0.0,1.0,91,0.00,,---,0.00,VWS V13.01,2013-06-22 11:47:00,
2013-06-22 06:53:00,75.1,72.3,30.02,East,82,0.0,1.0,91,0.00,,---,0.00,VWS V13.01,2013-06-22 11:53:00,
2013-06-22 06:58:00,75.1,72.3,30.03,East,87,0.0,3.0,91,0.00,,---,0.00,VWS V13.01,2013-06-22 11:58:00,
2013-06-22 07:03:00,75.2,72.4,30.03,East,87,0.0,4.0,91,0.00,,---,0.00,VWS V13.01,2013-06-22 12:03:00,
2013-06-22 07:08:00,75.3,72.5,30.03,East,87,0.0,0.0,91,0.00,,---,0.00,VWS V13.01,2013-06-22 12:08:00,
2013-06-22 07:13:00,75.4,72.6,30.04,East,88,0.0,2.0,91,0.00,,---,0.00,VWS V13.01,2013-06-22 12:13:00,
2013-06-22 07:18:00,75.6,72.8,30.04,NNE,17,0.0,4.0,91,0.00,,---,0.00,VWS V13.01,2013-06-22 12:18:00,
2013-06-22 07:23:00,75.7,72.9,30.04,ESE,107,0.0,4.0,91,0.00,,---,0.00,VWS V13.01,2013-06-22 12:23:00,
2013-06-22 07:28:00,75.9,73.1,30.04,ESE,106,0.0,4.0,91,0.00,,---,0.00,VWS V13.01,2013-06-22 12:28:00,
2013-06-22 07:33:00,76.0,73.2,30.04,ESE,110,0.0,4.0,91,0.00,,---,0.00,VWS V13.01,2013-06-22 12:33:00,
2013-06-22 07:38:00,76.3,73.5,30.05,ESE,106,0.0,4.0,91,0.00,,---,0.00,VWS V13.01,2013-06-22 12:38:00,
2013-06-22 07:43:00,76.6,73.8,30.05,ESE,106,0.0,4.0,91,0.00,,---,0.00,VWS V13.01,2013-06-22 12:43:00,
2013-06-22 07:48:00,76.9,73.8,30.05,ESE,106,0.0,4.0,90,0.00,,---,0.00,VWS V13.01,2013-06-22 12:48:00,
2013-06-22 07:53:00,77.3,74.1,30.05,ESE,107,0.0,5.0,90,0.00,,---,0.00,VWS V13.01,2013-06-22 12:53:00,
2013-06-22 07:58:00,77.5,74.0,30.05,ESE,117,0.0,5.0,89,0.00,,---,0.00,VWS V13.01,2013-06-22 12:58:00,
2013-06-22 08:03:00,77.7,73.9,30.05,East,89,0.0,7.0,88,0.00,,---,0.00,VWS V13.01,2013-06-22 13:03:00,
2013-06-22 08:08:00,78.0,74.2,30.05,ESE,121,0.0,6.0,88,0.00,,---,0.00,VWS V13.01,2013-06-22 13:08:00,
2013-06-22 08:14:00,78.3,74.1,30.05,ESE,110,0.0,6.0,87,0.00,,---,0.00,VWS V13.01,2013-06-22 13:14:00,
2013-06-22 08:19:00,78.7,74.2,30.05,SSE,159,0.0,6.0,86,0.00,,---,0.00,VWS V13.01,2013-06-22 13:19:00,
2013-06-22 08:24:00,78.8,74.3,30.05,SSE,163,0.0,6.0,86,0.00,,---,0.00,VWS V13.01,2013-06-22 13:24:00,
2013-06-22 08:29:00,79.1,74.2,30.06,SE,126,0.0,6.0,85,0.00,,---,0.00,VWS V13.01,2013-06-22 13:29:00,
2013-06-22 08:34:00,79.3,74.1,30.06,SSE,163,0.0,6.0,84,0.00,,---,0.00,VWS V13.01,2013-06-22 13:34:00,
2013-06-22 08:39:00,79.6,74.3,30.05,SSE,152,0.0,7.0,84,0.00,,---,0.00,VWS V13.01,2013-06-22 13:39:00,
2013-06-22 08:44:00,79.8,74.2,30.06,SE,140,0.0,7.0,83,0.00,,---,0.00,VWS V13.01,2013-06-22 13:44:00,
2013-06-22 08:49:00,79.9,73.9,30.06,SE,140,0.0,7.0,82,0.00,,---,0.00,VWS V13.01,2013-06-22 13:49:00,
2013-06-22 08:54:00,80.2,73.8,30.06,SSE,156,2.0,7.0,81,0.00,,---,0.00,VWS V13.01,2013-06-22 13:54:00,
2013-06-22 08:59:00,80.5,74.1,30.06,SSE,152,1.0,7.0,81,0.00,,---,0.00,VWS V13.01,2013-06-22 13:59:00,
2013-06-22 09:04:00,80.8,74.4,30.07,SE,143,3.0,7.0,81,0.00,,---,0.00,VWS V13.01,2013-06-22 14:04:00,
2013-06-22 09:09:00,81.1,74.3,30.07,SSE,162,1.0,5.0,80,0.00,,---,0.00,VWS V13.01,2013-06-22 14:09:00,
2013-06-22 09:14:00,81.4,74.6,30.07,SSE,166,0.0,5.0,80,0.00,,---,0.00,VWS V13.01,2013-06-22 14:14:00,
2013-06-22 09:19:00,81.6,74.5,30.07,ENE,71,3.0,9.0,79,0.00,,---,0.00,VWS V13.01,2013-06-22 14:19:00,
2013-06-22 09:24:00,81.8,74.7,30.07,SSE,149,0.0,9.0,79,0.00,,---,0.00,VWS V13.01,2013-06-22 14:24:00,
2013-06-22 09:29:00,82.0,74.5,30.07,SSE,152,0.0,9.0,78,0.00,,---,0.00,VWS V13.01,2013-06-22 14:29:00,
2013-06-22 09:35:00,82.2,74.7,30.07,South,183,0.0,9.0,78,0.00,,---,0.00,VWS V13.01,2013-06-22 14:35:00,
2013-06-22 09:40:00,82.3,74.4,30.07,SSW,213,0.0,3.0,77,0.00,,---,0.00,VWS V13.01,2013-06-22 14:40:00,
2013-06-22 09:45:00,82.5,74.9,30.07,SE,142,0.0,4.0,78,0.00,,---,0.00,VWS V13.01,2013-06-22 14:45:00,
2013-06-22 09:50:00,82.6,74.3,30.07,South,186,0.0,7.0,76,0.00,,---,0.00,VWS V13.01,2013-06-22 14:50:00,
2013-06-22 09:55:00,82.7,74.4,30.06,South,190,0.0,7.0,76,0.00,,---,0.00,VWS V13.01,2013-06-22 14:55:00,
2013-06-22 10:00:00,83.0,74.3,30.06,South,188,0.0,7.0,75,0.00,,---,0.00,VWS V13.01,2013-06-22 15:00:00,
2013-06-22 10:05:00,83.5,75.5,30.06,South,189,0.0,7.0,77,0.00,,---,0.00,VWS V13.01,2013-06-22 15:05:00,
2013-06-22 10:10:00,83.9,75.1,30.06,South,184,3.0,5.0,75,0.00,,---,0.00,VWS V13.01,2013-06-22 15:10:00,
2013-06-22 10:15:00,84.1,74.9,30.06,South,185,0.0,9.0,74,0.00,,---,0.00,VWS V13.01,2013-06-22 15:15:00,
2013-06-22 10:20:00,84.2,74.6,30.06,South,183,0.0,9.0,73,0.00,,---,0.00,VWS V13.01,2013-06-22 15:20:00,
2013-06-22 10:25:00,84.3,74.7,30.06,SW,227,0.0,9.0,73,0.00,,---,0.00,VWS V13.01,2013-06-22 15:25:00,
2013-06-22 10:30:00,84.5,74.9,30.06,SW,219,0.0,9.0,73,0.00,,---,0.00,VWS V13.01,2013-06-22 15:30:00,
2013-06-22 10:35:00,84.7,75.1,30.06,South,171,0.0,9.0,73,0.00,,---,0.00,VWS V13.01,2013-06-22 15:35:00,
2013-06-22 10:40:00,84.9,74.9,30.06,SSW,207,0.0,9.0,72,0.00,,---,0.00,VWS V13.01,2013-06-22 15:40:00,
2013-06-22 10:45:00,85.0,75.0,30.06,SW,217,0.0,9.0,72,0.00,,---,0.00,VWS V13.01,2013-06-22 15:45:00,
2013-06-22 10:50:00,85.1,75.1,30.06,SW,226,0.0,9.0,72,0.00,,---,0.00,VWS V13.01,2013-06-22 15:50:00,
2013-06-22 10:55:00,85.3,75.2,30.06,SW,226,5.0,9.0,72,0.00,,---,0.00,VWS V13.01,2013-06-22 15:55:00,
2013-06-22 11:00:00,85.5,75.0,30.06,SSW,197,0.0,9.0,71,0.00,,---,0.00,VWS V13.01,2013-06-22 16:00:00,
2013-06-22 11:05:00,85.7,75.2,30.06,WSW,244,0.0,9.0,71,0.00,,---,0.00,VWS V13.01,2013-06-22 16:05:00,
2013-06-22 11:10:00,85.8,74.9,30.06,SSW,199,2.0,6.0,70,0.00,,---,0.00,VWS V13.01,2013-06-22 16:10:00,
2013-06-22 11:15:00,85.8,74.9,30.06,SSW,202,3.0,9.0,70,0.00,,---,0.00,VWS V13.01,2013-06-22 16:15:00,
2013-06-22 11:21:00,85.8,74.5,30.06,SW,231,0.0,9.0,69,0.00,,---,0.00,VWS V13.01,2013-06-22 16:21:00,
2013-06-22 11:25:00,86.4,75.9,30.06,South,183,0.0,9.0,71,0.00,,---,0.00,VWS V13.01,2013-06-22 16:25:00,
2013-06-22 11:30:00,86.6,74.3,30.06,South,186,0.0,9.0,67,0.00,,---,0.00,VWS V13.01,2013-06-22 16:30:00,
2013-06-22 11:36:00,86.8,75.4,30.06,SSW,193,2.0,9.0,69,0.00,,---,0.00,VWS V13.01,2013-06-22 16:36:00,
2013-06-22 11:41:00,87.1,75.3,30.06,SW,230,6.0,10.0,68,0.00,,---,0.00,VWS V13.01,2013-06-22 16:41:00,
2013-06-22 11:46:00,87.2,74.5,30.06,SW,222,0.0,10.0,66,0.00,,---,0.00,VWS V13.01,2013-06-22 16:46:00,
2013-06-22 11:51:00,87.1,74.4,30.06,SW,219,0.0,10.0,66,0.00,,---,0.00,VWS V13.01,2013-06-22 16:51:00,
2013-06-22 11:56:00,86.8,73.6,30.06,SSW,199,0.0,10.0,65,0.00,,---,0.00,VWS V13.01,2013-06-22 16:56:00,
2013-06-22 12:01:00,87.1,75.3,30.06,SW,229,0.0,10.0,68,0.00,,---,0.00,VWS V13.01,2013-06-22 17:01:00,
2013-06-22 12:06:00,86.6,74.3,30.06,South,184,1.0,10.0,67,0.00,,---,0.00,VWS V13.01,2013-06-22 17:06:00,
2013-06-22 12:11:00,86.6,73.9,30.06,South,183,3.0,9.0,66,0.00,,---,0.00,VWS V13.01,2013-06-22 17:11:00,
2013-06-22 12:16:00,87.5,74.3,30.06,South,188,3.0,9.0,65,0.00,,---,0.00,VWS V13.01,2013-06-22 17:16:00,
2013-06-22 12:21:00,87.7,74.0,30.06,SSW,200,0.0,9.0,64,0.00,,---,0.00,VWS V13.01,2013-06-22 17:21:00,
2013-06-22 12:26:00,87.9,75.1,30.05,SW,226,3.0,9.0,66,0.00,,---,0.00,VWS V13.01,2013-06-22 17:26:00,
2013-06-22 12:31:00,88.5,75.2,30.05,SW,218,0.0,9.0,65,0.00,,---,0.00,VWS V13.01,2013-06-22 17:31:00,
2013-06-22 12:36:00,89.1,74.4,30.05,SW,224,0.0,9.0,62,0.00,,---,0.00,VWS V13.01,2013-06-22 17:36:00,
2013-06-22 12:41:00,89.4,75.6,30.04,SW,229,0.0,4.0,64,0.00,,---,0.00,VWS V13.01,2013-06-22 17:41:00,
2013-06-22 12:46:00,89.3,75.1,30.04,SSW,209,0.0,6.0,63,0.00,,---,0.00,VWS V13.01,2013-06-22 17:46:00,
2013-06-22 12:51:00,89.3,75.1,30.04,ESE,109,2.0,6.0,63,0.00,,---,0.00,VWS V13.01,2013-06-22 17:51:00,
2013-06-22 12:56:00,89.3,74.1,30.04,South,180,0.0,9.0,61,0.00,,---,0.00,VWS V13.01,2013-06-22 17:56:00,
2013-06-22 13:01:00,89.3,74.6,30.04,WSW,241,9.0,12.0,62,0.00,,---,0.00,VWS V13.01,2013-06-22 18:01:00,
2013-06-22 13:06:00,89.9,74.7,30.04,WSW,248,5.0,5.0,61,0.00,,---,0.00,VWS V13.01,2013-06-22 18:06:00,
2013-06-22 13:11:00,90.6,74.8,30.03,SW,224,5.0,9.0,60,0.00,,---,0.00,VWS V13.01,2013-06-22 18:11:00,
2013-06-22 13:17:00,90.6,74.3,30.03,WSW,238,6.0,9.0,59,0.00,,---,0.00,VWS V13.01,2013-06-22 18:17:00,
2013-06-22 13:22:00,91.0,74.2,30.03,SSW,200,0.0,9.0,58,0.00,,---,0.00,VWS V13.01,2013-06-22 18:22:00,
2013-06-22 13:27:00,90.9,75.6,30.03,South,180,0.0,9.0,61,0.00,,---,0.00,VWS V13.01,2013-06-22 18:27:00,
2013-06-22 13:32:00,91.0,74.2,30.03,SW,236,0.0,9.0,58,0.00,,---,0.00,VWS V13.01,2013-06-22 18:32:00,
2013-06-22 13:37:00,90.2,74.9,30.03,SW,236,0.0,0.0,61,0.00,,---,0.00,VWS V13.01,2013-06-22 18:37:00,
2013-06-22 13:42:00,90.3,74.0,30.02,SSW,207,0.0,7.0,59,0.00,,---,0.00,VWS V13.01,2013-06-22 18:42:00,
2013-06-22 13:47:00,90.6,75.8,30.02,South,182,4.0,7.0,62,0.00,,---,0.00,VWS V13.01,2013-06-22 18:47:00,
2013-06-22 13:52:00,90.5,74.7,30.02,SSW,200,3.0,10.0,60,0.00,,---,0.00,VWS V13.01,2013-06-22 18:52:00,
2013-06-22 13:57:00,90.6,74.3,30.01,SSW,204,3.0,10.0,59,0.00,,---,0.00,VWS V13.01,2013-06-22 18:57:00,
2013-06-22 14:02:00,90.6,73.8,30.02,South,183,0.0,11.0,58,0.00,,---,0.00,VWS V13.01,2013-06-22 19:02:00,
2013-06-22 14:07:00,90.2,72.9,30.02,SW,229,2.0,6.0,57,0.00,,---,0.00,VWS V13.01,2013-06-22 19:07:00,
2013-06-22 14:12:00,90.0,73.8,30.02,SW,227,0.0,7.0,59,0.00,,---,0.00,VWS V13.01,2013-06-22 19:12:00,
2013-06-22 14:17:00,90.2,72.9,30.02,SW,217,2.0,10.0,57,0.00,,---,0.00,VWS V13.01,2013-06-22 19:17:00,
2013-06-22 14:22:00,90.7,74.9,30.01,South,178,1.0,10.0,60,0.00,,---,0.00,VWS V13.01,2013-06-22 19:22:00,
2013-06-22 14:27:00,90.4,73.1,30.01,SW,223,3.0,10.0,57,0.00,,---,0.00,VWS V13.01,2013-06-22 19:27:00,
2013-06-22 14:32:00,90.8,73.5,30.01,SW,221,5.0,10.0,57,0.00,,---,0.00,VWS V13.01,2013-06-22 19:32:00,
2013-06-22 14:37:00,91.3,73.4,30.00,SW,227,0.0,0.0,56,0.00,,---,0.00,VWS V13.01,2013-06-22 19:37:00,
2013-06-22 14:42:00,91.8,73.9,30.00,South,184,0.0,9.0,56,0.00,,---,0.00,VWS V13.01,2013-06-22 19:42:00,
2013-06-22 14:47:00,91.8,72.2,30.01,SSE,167,6.0,11.0,53,0.00,,---,0.00,VWS V13.01,2013-06-22 19:47:00,
2013-06-22 14:53:00,92.1,74.7,30.00,SSW,198,5.0,12.0,57,0.00,,---,0.00,VWS V13.01,2013-06-22 19:53:00,
2013-06-22 14:58:00,92.1,73.6,30.00,South,180,5.0,12.0,55,0.00,,---,0.00,VWS V13.01,2013-06-22 19:58:00,
2013-06-22 15:03:00,91.1,73.2,30.00,WSW,241,0.0,12.0,56,0.00,,---,0.00,VWS V13.01,2013-06-22 20:03:00,
2013-06-22 15:08:00,90.4,73.6,30.00,South,189,0.0,6.0,58,0.00,,---,0.00,VWS V13.01,2013-06-22 20:08:00,
2013-06-22 15:13:00,89.7,73.5,30.00,SSW,193,0.0,6.0,59,0.00,,---,0.00,VWS V13.01,2013-06-22 20:13:00,
2013-06-22 15:18:00,90.1,74.3,30.00,SSW,200,0.0,6.0,60,0.00,,---,0.00,VWS V13.01,2013-06-22 20:18:00,
2013-06-22 15:23:00,91.0,75.7,30.00,South,189,0.0,6.0,61,0.00,,---,0.00,VWS V13.01,2013-06-22 20:23:00,
2013-06-22 15:28:00,91.4,74.0,29.99,SSW,198,0.0,6.0,57,0.00,,---,0.00,VWS V13.01,2013-06-22 20:28:00,
2013-06-22 15:33:00,91.1,72.2,29.99,SW,223,0.0,6.0,54,0.00,,---,0.00,VWS V13.01,2013-06-22 20:33:00,
2013-06-22 15:38:00,91.0,74.2,29.99,South,173,4.0,4.0,58,0.00,,---,0.00,VWS V13.01,2013-06-22 20:38:00,
2013-06-22 15:43:00,90.7,72.3,29.98,SSE,161,0.0,7.0,55,0.00,,---,0.00,VWS V13.01,2013-06-22 20:43:00,
2013-06-22 15:48:00,90.7,74.4,29.98,SSW,200,0.0,7.0,59,0.00,,---,0.00,VWS V13.01,2013-06-22 20:48:00,
2013-06-22 15:53:00,92.1,73.6,29.98,SSW,213,0.0,7.0,55,0.00,,---,0.00,VWS V13.01,2013-06-22 20:53:00,
2013-06-22 15:58:00,92.8,75.3,29.97,SSW,205,0.0,7.0,57,0.00,,---,0.00,VWS V13.01,2013-06-22 20:58:00,
2013-06-22 16:03:00,92.6,73.5,29.97,South,184,0.0,7.0,54,0.00,,---,0.00,VWS V13.01,2013-06-22 21:03:00,
2013-06-22 16:08:00,92.3,72.7,29.97,South,184,0.0,3.0,53,0.00,,---,0.00,VWS V13.01,2013-06-22 21:08:00,
2013-06-22 16:13:00,92.4,73.9,29.97,South,184,0.0,3.0,55,0.00,,---,0.00,VWS V13.01,2013-06-22 21:13:00,
2013-06-22 16:19:00,91.3,73.4,29.97,South,184,0.0,3.0,56,0.00,,---,0.00,VWS V13.01,2013-06-22 21:19:00,
2013-06-22 16:24:00,91.3,72.3,29.97,South,184,0.0,5.0,54,0.00,,---,0.00,VWS V13.01,2013-06-22 21:24:00,
2013-06-22 16:29:00,91.1,74.3,29.96,South,180,0.0,5.0,58,0.00,,---,0.00,VWS V13.01,2013-06-22 21:29:00,
2013-06-22 16:34:00,90.8,72.4,29.96,South,182,0.0,5.0,55,0.00,,---,0.00,VWS V13.01,2013-06-22 21:34:00,
2013-06-22 16:39:00,91.8,74.9,29.95,South,182,1.0,2.0,58,0.00,,---,0.00,VWS V13.01,2013-06-22 21:39:00,
2013-06-22 16:44:00,91.5,73.1,29.95,South,178,0.0,7.0,55,0.00,,---,0.00,VWS V13.01,2013-06-22 21:44:00,
2013-06-22 16:49:00,91.0,73.1,29.95,South,180,0.0,7.0,56,0.00,,---,0.00,VWS V13.01,2013-06-22 21:49:00,
2013-06-22 16:54:00,90.4,72.6,29.95,South,180,0.0,7.0,56,0.00,,---,0.00,VWS V13.01,2013-06-22 21:54:00,
2013-06-22 16:59:00,89.9,73.7,29.95,SSE,165,0.0,7.0,59,0.00,,---,0.00,VWS V13.01,2013-06-22 21:59:00,
2013-06-22 17:04:00,90.9,73.0,29.95,SSE,155,0.0,8.0,56,0.00,,---,0.00,VWS V13.01,2013-06-22 22:04:00,
2013-06-22 17:09:00,91.2,73.3,29.94,South,188,0.0,0.0,56,0.00,,---,0.00,VWS V13.01,2013-06-22 22:09:00,
2013-06-22 17:14:00,91.8,73.3,29.95,SSE,155,4.0,5.0,55,0.00,,---,0.00,VWS V13.01,2013-06-22 22:14:00,
2013-06-22 17:19:00,91.4,73.5,29.94,South,180,2.0,7.0,56,0.00,,---,0.00,VWS V13.01,2013-06-22 22:19:00,
2013-06-22 17:24:00,90.1,72.8,29.94,ESE,102,0.0,10.0,57,0.00,,---,0.00,VWS V13.01,2013-06-22 22:24:00,
2013-06-22 17:29:00,89.0,72.3,29.95,SE,145,0.0,10.0,58,0.00,,---,0.00,VWS V13.01,2013-06-22 22:29:00,
2013-06-22 17:34:00,88.2,72.6,29.95,ESE,118,0.0,10.0,60,0.00,,---,0.00,VWS V13.01,2013-06-22 22:34:00,
2013-06-22 17:39:00,87.4,72.3,29.95,SE,139,3.0,5.0,61,0.00,,---,0.00,VWS V13.01,2013-06-22 22:39:00,
2013-06-22 17:44:00,86.9,71.8,29.94,SE,142,3.0,7.0,61,0.00,,---,0.00,VWS V13.01,2013-06-22 22:44:00,
2013-06-22 17:49:00,86.5,71.5,29.94,SE,144,0.0,7.0,61,0.00,,---,0.00,VWS V13.01,2013-06-22 22:49:00,
2013-06-22 17:54:00,86.1,71.6,29.94,SSE,150,4.0,10.0,62,0.00,,---,0.00,VWS V13.01,2013-06-22 22:54:00,
2013-06-22 17:59:00,85.8,71.8,29.94,ESE,110,0.0,10.0,63,0.00,,---,0.00,VWS V13.01,2013-06-22 22:59:00,
2013-06-22 18:04:00,85.6,72.0,29.95,SE,132,0.0,10.0,64,0.00,,---,0.00,VWS V13.01,2013-06-22 23:04:00,
2013-06-22 18:10:00,85.5,72.4,29.95,SSE,152,0.0,6.0,65,0.00,,---,0.00,VWS V13.01,2013-06-22 23:10:00,
2013-06-22 18:15:00,85.3,72.7,29.95,East,92,4.0,11.0,66,0.00,,---,0.00,VWS V13.01,2013-06-22 23:15:00,
2013-06-22 18:20:00,85.2,72.6,29.95,SE,142,4.0,11.0,66,0.00,,---,0.00,VWS V13.01,2013-06-22 23:20:00,
2013-06-22 18:25:00,85.0,72.4,29.95,SE,127,5.0,12.0,66,0.00,,---,0.00,VWS V13.01,2013-06-22 23:25:00,
2013-06-22 18:30:00,84.8,72.6,29.95,ESE,111,4.0,12.0,67,0.00,,---,0.00,VWS V13.01,2013-06-22 23:30:00,
2013-06-22 18:35:00,84.6,72.9,29.95,East,88,0.0,12.0,68,0.00,,---,0.00,VWS V13.01,2013-06-22 23:35:00,
2013-06-22 18:40:00,84.4,72.7,29.95,SSE,166,0.0,4.0,68,0.00,,---,0.00,VWS V13.01,2013-06-22 23:40:00,
2013-06-22 18:45:00,84.3,72.6,29.96,SSE,155,0.0,4.0,68,0.00,,---,0.00,VWS V13.01,2013-06-22 23:45:00,
2013-06-22 18:50:00,84.1,72.4,29.96,SSE,162,3.0,11.0,68,0.00,,---,0.00,VWS V13.01,2013-06-22 23:50:00,
2013-06-22 18:55:00,83.9,71.3,29.96,SSE,167,0.0,12.0,66,0.00,,---,0.00,VWS V13.01,2013-06-22 23:55:00,
2013-06-22 19:00:00,83.5,71.4,29.96,South,175,3.0,12.0,67,0.00,,---,0.00,VWS V13.01,2013-06-23 00:00:00,
2013-06-22 19:05:00,83.2,71.6,29.96,SSW,194,2.0,12.0,68,0.00,,---,0.00,VWS V13.01,2013-06-23 00:05:00,
2013-06-22 19:10:00,83.0,71.8,29.96,SE,125,1.0,7.0,69,0.00,,---,0.00,VWS V13.01,2013-06-23 00:10:00,
2013-06-22 19:15:00,82.8,71.6,29.96,SE,126,0.0,9.0,69,0.00,,---,0.00,VWS V13.01,2013-06-23 00:15:00,
2013-06-22 19:20:00,82.7,71.9,29.96,SSE,148,1.0,9.0,70,0.00,,---,0.00,VWS V13.01,2013-06-23 00:20:00,
2013-06-22 19:25:00,82.5,71.3,29.96,SE,132,0.0,13.0,69,0.00,,---,0.00,VWS V13.01,2013-06-23 00:25:00,
2013-06-22 19:30:00,82.2,71.0,29.96,South,175,0.0,13.0,69,0.00,,---,0.00,VWS V13.01,2013-06-23 00:30:00,
2013-06-22 19:35:00,82.0,70.8,29.96,SSE,159,0.0,13.0,69,0.00,,---,0.00,VWS V13.01,2013-06-23 00:35:00,
2013-06-22 19:40:00,81.9,70.7,29.96,SSE,157,4.0,7.0,69,0.00,,---,0.00,VWS V13.01,2013-06-23 00:40:00,
2013-06-22 19:45:00,81.7,70.1,29.96,SE,144,0.0,8.0,68,0.00,,---,0.00,VWS V13.01,2013-06-23 00:45:00,
2013-06-22 19:50:00,81.6,70.0,29.95,SE,144,0.0,8.0,68,0.00,,---,0.00,VWS V13.01,2013-06-23 00:50:00,
2013-06-22 19:55:00,81.5,69.9,29.95,SE,144,0.0,8.0,68,0.00,,---,0.00,VWS V13.01,2013-06-23 00:55:00,
2013-06-22 20:00:00,81.3,69.7,29.95,SSE,159,0.0,8.0,68,0.00,,---,0.00,VWS V13.01,2013-06-23 01:00:00,
2013-06-22 20:05:00,81.1,69.6,29.95,SSE,159,0.0,8.0,68,0.00,,---,0.00,VWS V13.01,2013-06-23 01:05:00,
2013-06-22 20:10:00,81.0,69.4,29.95,SSE,159,0.0,1.0,68,0.00,,---,0.00,VWS V13.01,2013-06-23 01:10:00,
2013-06-22 20:16:00,80.8,69.3,29.95,SSE,159,0.0,4.0,68,0.00,,---,0.00,VWS V13.01,2013-06-23 01:16:00,
2013-06-22 20:20:00,80.6,69.1,29.95,SSE,159,0.0,5.0,68,0.00,,---,0.00,VWS V13.01,2013-06-23 01:20:00,
2013-06-22 20:26:00,80.5,69.0,29.95,SSE,159,0.0,5.0,68,0.00,,---,0.00,VWS V13.01,2013-06-23 01:26:00,
2013-06-22 20:31:00,80.2,68.7,29.95,SSE,159,0.0,5.0,68,0.00,,---,0.00,VWS V13.01,2013-06-23 01:31:00,
2013-06-22 20:36:00,80.0,68.5,29.95,SSE,159,0.0,5.0,68,0.00,,---,0.00,VWS V13.01,2013-06-23 01:36:00,
2013-06-22 20:41:00,79.8,68.7,29.95,SSE,159,0.0,2.0,69,0.00,,---,0.00,VWS V13.01,2013-06-23 01:41:00,
2013-06-22 20:46:00,79.6,68.5,29.95,SSE,159,0.0,4.0,69,0.00,,---,0.00,VWS V13.01,2013-06-23 01:46:00,
2013-06-22 20:51:00,79.4,68.3,29.95,SSE,159,0.0,4.0,69,0.00,,---,0.00,VWS V13.01,2013-06-23 01:51:00,
2013-06-22 20:56:00,79.3,68.7,29.95,SSE,159,0.0,4.0,70,0.00,,---,0.00,VWS V13.01,2013-06-23 01:56:00,
2013-06-22 21:01:00,79.1,68.5,29.95,SSE,159,0.0,4.0,70,0.00,,---,0.00,VWS V13.01,2013-06-23 02:01:00,
2013-06-22 21:06:00,78.9,68.7,29.95,SSE,159,0.0,4.0,71,0.00,,---,0.00,VWS V13.01,2013-06-23 02:06:00,
2013-06-22 21:11:00,78.7,68.5,29.95,SSE,159,2.0,3.0,71,0.00,,---,0.00,VWS V13.01,2013-06-23 02:11:00,
2013-06-22 21:16:00,78.7,68.5,29.95,SSE,159,0.0,3.0,71,0.00,,---,0.00,VWS V13.01,2013-06-23 02:16:00,
2013-06-22 21:21:00,78.6,68.4,29.95,SSE,159,0.0,3.0,71,0.00,,---,0.00,VWS V13.01,2013-06-23 02:21:00,
2013-06-22 21:26:00,78.5,68.7,29.96,SSE,159,0.0,5.0,72,0.00,,---,0.00,VWS V13.01,2013-06-23 02:26:00,
2013-06-22 21:31:00,78.4,68.6,29.96,SSE,155,0.0,7.0,72,0.00,,---,0.00,VWS V13.01,2013-06-23 02:31:00,
2013-06-22 21:36:00,78.2,68.8,29.96,SSE,155,0.0,7.0,73,0.00,,---,0.00,VWS V13.01,2013-06-23 02:36:00,
2013-06-22 21:41:00,78.1,68.8,29.96,SSE,155,4.0,4.0,73,0.00,,---,0.00,VWS V13.01,2013-06-23 02:41:00,
2013-06-22 21:47:00,78.0,68.7,29.96,SSE,156,0.0,8.0,73,0.00,,---,0.00,VWS V13.01,2013-06-23 02:47:00,
2013-06-22 21:52:00,77.9,68.9,29.96,SSE,156,0.0,8.0,74,0.00,,---,0.00,VWS V13.01,2013-06-23 02:52:00,
2013-06-22 21:56:00,77.9,68.9,29.97,SSE,147,3.0,8.0,74,0.00,,---,0.00,VWS V13.01,2013-06-23 02:56:00,
2013-06-22 22:01:00,77.9,68.9,29.98,SE,146,0.0,8.0,74,0.00,,---,0.00,VWS V13.01,2013-06-23 03:01:00,
2013-06-22 22:06:00,77.9,69.3,29.98,SE,143,2.0,2.0,75,0.00,,---,0.00,VWS V13.01,2013-06-23 03:06:00,
2013-06-22 22:12:00,77.9,68.9,29.98,SE,141,0.0,4.0,74,0.00,,---,0.00,VWS V13.01,2013-06-23 03:12:00,
2013-06-22 22:17:00,77.9,68.9,29.97,SE,141,0.0,4.0,74,0.00,,---,0.00,VWS V13.01,2013-06-23 03:17:00,
2013-06-22 22:22:00,77.9,69.3,29.98,SE,141,6.0,6.0,75,0.00,,---,0.00,VWS V13.01,2013-06-23 03:22:00,
2013-06-22 22:27:00,77.9,69.3,29.98,SE,140,0.0,7.0,75,0.00,,---,0.00,VWS V13.01,2013-06-23 03:27:00,
2013-06-22 22:32:00,77.9,69.3,29.98,SE,141,2.0,7.0,75,0.00,,---,0.00,VWS V13.01,2013-06-23 03:32:00,
2013-06-22 22:37:00,77.9,69.3,29.98,SE,141,0.0,0.0,75,0.00,,---,0.00,VWS V13.01,2013-06-23 03:37:00,
2013-06-22 22:42:00,77.9,69.3,29.98,SE,133,0.0,6.0,75,0.00,,---,0.00,VWS V13.01,2013-06-23 03:42:00,
2013-06-22 22:47:00,77.8,69.2,29.98,SE,133,4.0,7.0,75,0.00,,---,0.00,VWS V13.01,2013-06-23 03:47:00,
2013-06-22 22:52:00,77.8,69.2,29.98,SE,132,0.0,7.0,75,0.00,,---,0.00,VWS V13.01,2013-06-23 03:52:00,
2013-06-22 22:57:00,77.7,69.2,29.98,SE,134,0.0,7.0,75,0.00,,---,0.00,VWS V13.01,2013-06-23 03:57:00,
2013-06-22 23:01:00,77.5,69.0,29.98,SE,129,3.0,7.0,75,0.00,,---,0.00,VWS V13.01,2013-06-23 04:01:00,
2013-06-22 23:03:00,77.5,69.3,29.99,SE,124,5.0,7.0,76,0.00,,---,0.00,VWS V13.01,2013-06-23 04:03:00,
2013-06-22 23:08:00,77.3,69.2,29.99,ESE,121,7.0,7.0,76,0.00,,---,0.00,VWS V13.01,2013-06-23 04:08:00,
2013-06-22 23:13:00,77.0,69.2,29.99,East,98,4.0,7.0,77,0.00,,---,0.00,VWS V13.01,2013-06-23 04:13:00,
2013-06-22 23:18:00,76.8,69.1,29.99,ESE,102,0.0,7.0,77,0.00,,---,0.00,VWS V13.01,2013-06-23 04:18:00,
2013-06-22 23:23:00,76.6,69.2,29.99,East,101,5.0,7.0,78,0.00,,---,0.00,VWS V13.01,2013-06-23 04:23:00,
2013-06-22 23:28:00,76.5,69.1,29.99,East,101,0.0,7.0,78,0.00,,---,0.00,VWS V13.01,2013-06-23 04:28:00,
2013-06-22 23:33:00,76.4,69.4,29.99,SE,138,0.0,9.0,79,0.00,,---,0.00,VWS V13.01,2013-06-23 04:33:00,
2013-06-22 23:38:00,76.3,69.3,29.99,ESE,118,5.0,5.0,79,0.00,,---,0.00,VWS V13.01,2013-06-23 04:38:00,
2013-06-22 23:43:00,76.3,69.7,29.99,ENE,69,0.0,5.0,80,0.00,,---,0.00,VWS V13.01,2013-06-23 04:43:00,
2013-06-22 23:49:00,76.3,69.7,29.99,SE,126,3.0,6.0,80,0.00,,---,0.00,VWS V13.01,2013-06-23 04:49:00,
2013-06-22 23:54:00,76.3,69.7,29.99,ESE,105,0.0,6.0,80,0.00,,---,0.00,VWS V13.01,2013-06-23 04:54:00,
2013-06-22 23:59:00,76.2,69.6,29.99,ESE,105,0.0,6.0,80,0.00,,---,0.00,VWS V13.01,2013-06-23 04:59:00,